createdAt,value
2018-12-27T00:01:05.572Z,100.00
2018-12-27T00:06:10.928Z,100.00
2018-12-27T00:11:16.439Z,100.00
2018-12-27T00:16:21.892Z,100.00
2018-12-27T00:21:28.186Z,100.00
2018-12-27T00:26:33.629Z,100.00
2018-12-27T00:31:39.796Z,100.00
2018-12-27T00:36:45.132Z,100.00
2018-12-27T00:41:50.748Z,100.00
2018-12-27T00:46:55.981Z,100.00
2018-12-27T00:52:01.287Z,100.00
2018-12-27T00:57:06.851Z,100.00
2018-12-27T01:02:12.233Z,100.00
2018-12-27T01:07:17.463Z,100.00
2018-12-27T01:12:22.805Z,100.00
2018-12-27T01:17:28.175Z,100.00
2018-12-27T01:22:33.538Z,100.00
2018-12-27T01:27:44.009Z,100.00
2018-12-27T01:32:49.269Z,100.00
2018-12-27T01:37:54.630Z,100.00
2018-12-27T01:43:00.263Z,100.00
2018-12-27T01:48:05.657Z,100.00
2018-12-27T01:53:11.148Z,100.00
2018-12-27T01:58:16.430Z,100.00
2018-12-27T02:03:26.414Z,100.00
2018-12-27T02:08:29.192Z,100.00
2018-12-27T02:13:34.724Z,100.00
2018-12-27T02:18:41.880Z,100.00
2018-12-27T02:23:48.952Z,100.00
2018-12-27T02:28:56.230Z,100.00
2018-12-27T02:34:01.715Z,100.00
2018-12-27T02:44:45.543Z,100.00
2018-12-27T02:50:12.512Z,100.00
2018-12-27T02:55:18.464Z,100.00
2018-12-27T03:00:24.142Z,100.00
2018-12-27T03:05:32.853Z,100.00
2018-12-27T03:10:40.589Z,100.00
2018-12-27T03:15:47.053Z,100.00
2018-12-27T03:20:52.811Z,100.00
2018-12-27T03:25:58.089Z,100.00
2018-12-27T03:31:03.357Z,100.00
2018-12-27T03:36:08.886Z,100.00
2018-12-27T03:41:14.249Z,100.00
2018-12-27T03:46:19.438Z,100.00
2018-12-27T03:51:24.688Z,100.00
2018-12-27T03:56:29.914Z,100.00
2018-12-27T04:01:38.155Z,100.00
2018-12-27T04:06:43.765Z,100.00
2018-12-27T04:11:49.040Z,100.00
2018-12-27T04:16:56.852Z,100.00
2018-12-27T04:22:04.734Z,100.00
2018-12-27T04:27:12.469Z,100.00
2018-12-27T04:32:18.807Z,100.00
2018-12-27T04:37:23.854Z,100.00
2018-12-27T04:42:29.004Z,100.00
2018-12-27T04:47:39.148Z,100.00
2018-12-27T04:52:44.698Z,100.00
2018-12-27T04:57:49.729Z,100.00
2018-12-27T05:02:54.811Z,100.00
2018-12-27T05:08:00.587Z,100.00
2018-12-27T05:13:05.993Z,100.00
2018-12-27T05:18:12.264Z,100.00
2018-12-27T05:23:17.339Z,100.00
2018-12-27T05:28:22.438Z,100.00
2018-12-27T05:33:27.819Z,100.00
2018-12-27T05:38:38.020Z,100.00
2018-12-27T05:43:44.404Z,100.00
2018-12-27T05:48:49.452Z,100.00
2018-12-27T05:53:54.653Z,100.00
2018-12-27T05:59:04.907Z,100.00
2018-12-27T06:04:10.376Z,100.00
2018-12-27T06:09:15.549Z,100.00
2018-12-27T06:14:20.535Z,100.00
2018-12-27T06:25:09.139Z,100.00
2018-12-27T06:30:14.118Z,100.00
2018-12-27T06:35:19.470Z,100.00
2018-12-27T06:40:25.182Z,100.00
2018-12-27T06:45:30.818Z,100.00
2018-12-27T06:50:36.193Z,100.00
2018-12-27T06:55:43.581Z,100.00
2018-12-27T07:00:48.754Z,100.00
2018-12-27T07:05:53.815Z,100.00
2018-12-27T07:11:00.027Z,100.00
2018-12-27T07:16:05.275Z,100.00
2018-12-27T07:21:10.811Z,100.00
2018-12-27T07:26:15.939Z,100.00
2018-12-27T07:31:21.359Z,100.00
2018-12-27T07:36:26.328Z,100.00
2018-12-27T07:41:35.983Z,100.00
2018-12-27T07:46:41.046Z,100.00
2018-12-27T07:51:47.953Z,100.00
2018-12-27T07:56:53.175Z,100.00
2018-12-27T08:01:58.997Z,100.00
2018-12-27T08:07:04.595Z,100.00
2018-12-27T08:12:09.860Z,99.85
2018-12-27T08:17:17.621Z,99.69
2018-12-27T08:22:22.974Z,99.59
2018-12-27T08:27:28.161Z,99.30
2018-12-27T08:32:35.118Z,99.14
2018-12-27T08:37:40.280Z,98.98
2018-12-27T08:42:45.338Z,98.02
2018-12-27T08:47:52.089Z,97.53
2018-12-27T08:52:57.444Z,98.00
2018-12-27T08:58:02.946Z,98.18
2018-12-27T09:03:08.420Z,97.57
2018-12-27T09:08:14.656Z,97.63
2018-12-27T09:13:19.950Z,98.04
2018-12-27T09:18:25.402Z,98.22
2018-12-27T09:23:32.394Z,97.73
2018-12-27T09:28:38.356Z,95.99
2018-12-27T09:33:43.473Z,94.91
2018-12-27T09:38:48.897Z,94.72
2018-12-27T09:43:54.367Z,94.02
2018-12-27T09:48:59.441Z,94.28
2018-12-27T09:54:04.707Z,91.98
2018-12-27T09:59:10.324Z,89.94
2018-12-27T10:04:15.988Z,88.04
2018-12-27T10:09:39.296Z,85.08
2018-12-27T10:14:44.678Z,83.35
2018-12-27T10:19:49.869Z,83.73
2018-12-27T10:24:55.334Z,83.04
2018-12-27T10:30:24.282Z,83.09
2018-12-27T10:35:30.068Z,82.64
2018-12-27T10:40:35.534Z,81.35
2018-12-27T10:45:40.889Z,80.59
2018-12-27T10:50:47.179Z,79.67
2018-12-27T10:55:53.975Z,79.41
2018-12-27T11:00:59.176Z,77.79
2018-12-27T11:06:04.444Z,76.43
2018-12-27T11:11:09.599Z,76.36
2018-12-27T11:16:19.953Z,76.40
2018-12-27T11:21:25.084Z,76.10
2018-12-27T11:26:32.724Z,75.03
2018-12-27T11:31:37.850Z,74.76
2018-12-27T11:36:43.460Z,73.33
2018-12-27T11:41:49.460Z,72.96
2018-12-27T11:46:54.700Z,71.51
2018-12-27T11:51:59.929Z,71.71
2018-12-27T11:57:05.051Z,70.22
2018-12-27T12:02:10.316Z,68.92
2018-12-27T12:07:16.470Z,68.61
2018-12-27T12:12:21.646Z,66.79
2018-12-27T12:17:28.318Z,64.61
2018-12-27T12:22:33.947Z,64.20
2018-12-27T12:27:39.125Z,64.35
2018-12-27T12:32:44.228Z,64.12
2018-12-27T12:37:51.354Z,65.73
2018-12-27T12:42:56.458Z,66.11
2018-12-27T12:48:01.974Z,65.34
2018-12-27T12:53:07.042Z,64.51
2018-12-27T12:58:12.546Z,63.31
2018-12-27T13:03:17.770Z,63.48
2018-12-27T13:08:24.084Z,63.78
2018-12-27T13:13:29.392Z,64.10
2018-12-27T13:18:34.530Z,64.21
2018-12-27T13:23:39.621Z,65.62
2018-12-27T13:28:47.988Z,64.36
2018-12-27T13:33:54.131Z,64.54
2018-12-27T13:39:21.182Z,64.90
2018-12-27T13:44:26.616Z,63.92
2018-12-27T13:49:32.569Z,64.35
2018-12-27T13:54:42.857Z,64.87
2018-12-27T13:59:49.121Z,64.48
2018-12-27T14:04:55.520Z,64.60
2018-12-27T14:10:03.495Z,65.53
2018-12-27T14:15:09.197Z,66.29
2018-12-27T14:20:14.404Z,65.64
2018-12-27T14:25:20.000Z,66.19
2018-12-27T14:30:25.593Z,66.45
2018-12-27T14:35:31.078Z,67.30
2018-12-27T14:40:36.360Z,67.98
2018-12-27T14:45:43.144Z,68.93
2018-12-27T14:50:48.863Z,69.36
2018-12-27T14:55:56.890Z,70.02
2018-12-27T15:01:02.526Z,71.06
2018-12-27T15:06:09.392Z,71.71
2018-12-27T15:11:16.460Z,72.57
2018-12-27T15:16:24.073Z,73.22
2018-12-27T15:21:29.840Z,73.42
2018-12-27T15:26:35.952Z,73.74
2018-12-27T15:31:41.111Z,74.09
2018-12-27T15:36:46.698Z,74.31
2018-12-27T15:41:51.830Z,74.46
2018-12-27T15:46:56.978Z,74.71
2018-12-27T15:52:02.182Z,74.76
2018-12-27T15:57:12.414Z,75.01
2018-12-27T16:02:17.492Z,75.28
2018-12-27T16:07:22.901Z,75.16
2018-12-27T16:12:28.146Z,75.30
2018-12-27T16:17:34.055Z,74.99
2018-12-27T16:22:39.351Z,75.02
2018-12-27T16:27:47.843Z,75.20
2018-12-27T16:32:54.113Z,75.16
2018-12-27T16:37:59.780Z,75.02
2018-12-27T16:43:05.316Z,74.51
2018-12-27T16:48:27.401Z,74.89
2018-12-27T16:53:35.830Z,74.81
2018-12-27T16:58:47.493Z,75.16
2018-12-27T17:03:52.715Z,74.97
2018-12-27T17:09:05.401Z,75.36
2018-12-27T17:14:15.227Z,75.42
2018-12-27T17:19:21.313Z,75.76
2018-12-27T17:24:26.649Z,76.03
2018-12-27T17:29:32.437Z,75.98
2018-12-27T17:34:37.727Z,76.61
2018-12-27T17:39:48.069Z,77.06
2018-12-27T17:44:54.322Z,77.21
2018-12-27T17:50:05.276Z,77.08
2018-12-27T17:55:11.711Z,77.25
2018-12-27T18:00:18.313Z,76.76
2018-12-27T18:05:23.799Z,77.38
2018-12-27T18:10:31.407Z,77.10
2018-12-27T18:15:37.057Z,77.03
2018-12-27T18:20:42.229Z,77.44
2018-12-27T18:25:47.379Z,77.20
2018-12-27T18:30:53.813Z,76.98
2018-12-27T18:36:02.215Z,76.95
2018-12-27T18:41:10.367Z,77.40
2018-12-27T18:46:18.485Z,77.64
2018-12-27T18:51:23.879Z,77.63
2018-12-27T18:56:29.317Z,77.31
2018-12-27T19:01:36.868Z,77.36
2018-12-27T19:06:45.605Z,77.28
2018-12-27T19:12:26.699Z,77.66
2018-12-27T19:17:52.421Z,76.80
2018-12-27T19:23:23.623Z,76.96
2018-12-27T19:45:30.397Z,76.14
2018-12-27T19:50:39.850Z,76.14
2018-12-27T19:55:47.279Z,75.29
2018-12-27T20:00:55.249Z,75.13
2018-12-27T20:06:04.879Z,74.23
2018-12-27T20:11:13.164Z,75.16
2018-12-27T20:16:23.928Z,75.91
2018-12-27T20:21:55.651Z,77.42
2018-12-27T20:27:03.977Z,78.31
2018-12-27T20:32:17.137Z,79.01
2018-12-27T20:37:33.263Z,79.65
2018-12-27T20:42:42.268Z,80.72
2018-12-27T20:47:59.825Z,81.72
2018-12-27T20:53:06.515Z,82.89
2018-12-27T20:58:11.942Z,83.56
2018-12-27T21:03:19.706Z,84.29
2018-12-27T21:08:32.166Z,84.71
2018-12-27T21:13:37.775Z,85.02
2018-12-27T21:18:44.872Z,85.33
2018-12-27T21:23:55.335Z,85.39
2018-12-27T21:29:06.026Z,85.48
2018-12-27T21:34:15.408Z,85.85
2018-12-27T21:39:23.226Z,85.67
2018-12-27T21:44:30.480Z,85.55
2018-12-27T21:49:42.049Z,85.36
2018-12-27T21:54:56.251Z,85.69
2018-12-27T22:00:05.045Z,85.93
2018-12-27T22:05:13.332Z,85.78
2018-12-27T22:10:19.827Z,85.68
2018-12-27T22:15:26.145Z,85.36
2018-12-27T22:20:34.528Z,84.85
2018-12-27T22:25:45.566Z,84.51
2018-12-27T22:30:52.600Z,84.60
2018-12-27T22:35:58.026Z,84.25
2018-12-27T22:41:03.953Z,83.72
2018-12-27T22:46:10.084Z,83.22
2018-12-27T22:51:15.472Z,82.50
2018-12-27T22:56:21.193Z,82.00
2018-12-27T23:01:26.938Z,81.54
2018-12-27T23:06:33.228Z,80.87
2018-12-27T23:11:38.972Z,81.02
2018-12-27T23:16:45.120Z,81.46
2018-12-27T23:21:52.696Z,81.65
2018-12-27T23:26:57.763Z,81.20
2018-12-27T23:32:04.143Z,81.51
2018-12-27T23:37:15.163Z,81.79
2018-12-27T23:42:20.266Z,82.65
2018-12-27T23:47:27.554Z,83.45
2018-12-27T23:52:32.684Z,84.11
2018-12-27T23:57:39.788Z,84.50
